sensor_id;sensor_type;location;lat;lon;timestamp;P1;durP1;ratioP1;P2;durP2;ratioP2
73898;SDS011;62234;50.892;12.724;2022-08-11T00:00:36;4.35;;;2.40;;
73898;SDS011;62234;50.892;12.724;2022-08-11T00:06:15;2.47;;;1.92;;
73898;SDS011;62234;50.892;12.724;2022-08-11T00:11:48;3.45;;;2.22;;
73898;SDS011;62234;50.892;12.724;2022-08-11T00:14:41;2.67;;;2.47;;
73898;SDS011;62234;50.892;12.724;2022-08-11T00:50:46;2.05;;;1.77;;
73898;SDS011;62234;50.892;12.724;2022-08-11T01:05:22;2.05;;;1.70;;
73898;SDS011;62234;50.892;12.724;2022-08-11T02:08:32;1.98;;;1.50;;
73898;SDS011;62234;50.892;12.724;2022-08-11T02:23:38;4.03;;;1.90;;
73898;SDS011;62234;50.892;12.724;2022-08-11T02:26:17;2.08;;;1.90;;
73898;SDS011;62234;50.892;12.724;2022-08-11T02:31:51;4.93;;;1.92;;
73898;SDS011;62234;50.892;12.724;2022-08-11T02:59:47;2.47;;;1.75;;
73898;SDS011;62234;50.892;12.724;2022-08-11T03:02:31;2.15;;;1.80;;
73898;SDS011;62234;50.892;12.724;2022-08-11T03:08:02;3.60;;;1.63;;
73898;SDS011;62234;50.892;12.724;2022-08-11T03:13:20;3.28;;;2.05;;
73898;SDS011;62234;50.892;12.724;2022-08-11T03:16:16;3.80;;;2.00;;
73898;SDS011;62234;50.892;12.724;2022-08-11T03:24:47;4.53;;;1.90;;
73898;SDS011;62234;50.892;12.724;2022-08-11T03:35:40;5.93;;;1.73;;
73898;SDS011;62234;50.892;12.724;2022-08-11T03:38:10;5.57;;;2.20;;
73898;SDS011;62234;50.892;12.724;2022-08-11T03:46:25;1.85;;;1.70;;
73898;SDS011;62234;50.892;12.724;2022-08-11T03:48:54;2.17;;;1.55;;
73898;SDS011;62234;50.892;12.724;2022-08-11T03:51:37;2.97;;;1.80;;
73898;SDS011;62234;50.892;12.724;2022-08-11T03:54:27;4.13;;;2.05;;
73898;SDS011;62234;50.892;12.724;2022-08-11T04:28:59;5.47;;;2.05;;
73898;SDS011;62234;50.892;12.724;2022-08-11T04:37:08;1.80;;;1.70;;
73898;SDS011;62234;50.892;12.724;2022-08-11T04:42:53;2.40;;;2.00;;
73898;SDS011;62234;50.892;12.724;2022-08-11T04:57:36;1.90;;;1.80;;
73898;SDS011;62234;50.892;12.724;2022-08-11T05:00:26;3.92;;;2.10;;
73898;SDS011;62234;50.892;12.724;2022-08-11T05:08:52;4.82;;;2.22;;
73898;SDS011;62234;50.892;12.724;2022-08-11T05:13:50;4.15;;;2.22;;
73898;SDS011;62234;50.892;12.724;2022-08-11T05:16:52;2.33;;;2.13;;
73898;SDS011;62234;50.892;12.724;2022-08-11T05:19:38;5.72;;;2.40;;
73898;SDS011;62234;50.892;12.724;2022-08-11T05:22:35;2.72;;;2.40;;
73898;SDS011;62234;50.892;12.724;2022-08-11T05:25:24;4.18;;;2.50;;
73898;SDS011;62234;50.892;12.724;2022-08-11T05:28:12;6.75;;;2.88;;
73898;SDS011;62234;50.892;12.724;2022-08-11T05:34:16;7.05;;;2.83;;
73898;SDS011;62234;50.892;12.724;2022-08-11T05:37:30;7.25;;;2.72;;
73898;SDS011;62234;50.892;12.724;2022-08-11T05:39:50;3.72;;;2.40;;
73898;SDS011;62234;50.892;12.724;2022-08-11T05:42:41;3.15;;;2.20;;
73898;SDS011;62234;50.892;12.724;2022-08-11T05:45:26;2.58;;;2.25;;
73898;SDS011;62234;50.892;12.724;2022-08-11T05:48:11;7.30;;;2.85;;
73898;SDS011;62234;50.892;12.724;2022-08-11T05:51:00;10.02;;;2.67;;
73898;SDS011;62234;50.892;12.724;2022-08-11T05:56:30;3.42;;;2.42;;
73898;SDS011;62234;50.892;12.724;2022-08-11T05:58:59;2.55;;;2.33;;
73898;SDS011;62234;50.892;12.724;2022-08-11T06:01:26;3.53;;;2.35;;
73898;SDS011;62234;50.892;12.724;2022-08-11T06:07:17;2.95;;;2.40;;
73898;SDS011;62234;50.892;12.724;2022-08-11T06:10:12;3.58;;;2.65;;
73898;SDS011;62234;50.892;12.724;2022-08-11T06:12:38;3.00;;;2.60;;
73898;SDS011;62234;50.892;12.724;2022-08-11T06:15:22;4.88;;;2.88;;
73898;SDS011;62234;50.892;12.724;2022-08-11T06:17:56;4.90;;;2.55;;
73898;SDS011;62234;50.892;12.724;2022-08-11T06:20:25;4.40;;;2.42;;
73898;SDS011;62234;50.892;12.724;2022-08-11T06:22:59;7.32;;;2.33;;
73898;SDS011;62234;50.892;12.724;2022-08-11T06:25:33;3.58;;;2.33;;
73898;SDS011;62234;50.892;12.724;2022-08-11T06:28:02;5.60;;;2.60;;
73898;SDS011;62234;50.892;12.724;2022-08-11T06:30:40;7.68;;;2.38;;
73898;SDS011;62234;50.892;12.724;2022-08-11T06:33:10;3.20;;;2.28;;
73898;SDS011;62234;50.892;12.724;2022-08-11T06:35:44;4.60;;;2.13;;
73898;SDS011;62234;50.892;12.724;2022-08-11T06:38:13;2.75;;;1.98;;
73898;SDS011;62234;50.892;12.724;2022-08-11T06:40:57;2.38;;;1.88;;
73898;SDS011;62234;50.892;12.724;2022-08-11T06:43:53;3.45;;;2.30;;
73898;SDS011;62234;50.892;12.724;2022-08-11T06:46:30;4.45;;;2.03;;
73898;SDS011;62234;50.892;12.724;2022-08-11T06:48:57;4.93;;;1.98;;
73898;SDS011;62234;50.892;12.724;2022-08-11T06:51:26;3.42;;;2.10;;
73898;SDS011;62234;50.892;12.724;2022-08-11T06:53:53;6.50;;;1.90;;
73898;SDS011;62234;50.892;12.724;2022-08-11T06:56:27;4.80;;;2.47;;
73898;SDS011;62234;50.892;12.724;2022-08-11T06:59:14;3.78;;;2.40;;
73898;SDS011;62234;50.892;12.724;2022-08-11T07:02:02;4.88;;;2.28;;
73898;SDS011;62234;50.892;12.724;2022-08-11T07:12:54;4.70;;;2.10;;
73898;SDS011;62234;50.892;12.724;2022-08-11T07:15:41;5.13;;;2.40;;
73898;SDS011;62234;50.892;12.724;2022-08-11T07:18:11;8.52;;;2.40;;
73898;SDS011;62234;50.892;12.724;2022-08-11T07:24:11;8.57;;;2.10;;
73898;SDS011;62234;50.892;12.724;2022-08-11T07:26:57;4.10;;;1.90;;
73898;SDS011;62234;50.892;12.724;2022-08-11T07:29:44;4.35;;;2.17;;
73898;SDS011;62234;50.892;12.724;2022-08-11T07:32:17;4.10;;;1.75;;
73898;SDS011;62234;50.892;12.724;2022-08-11T07:34:54;7.47;;;2.00;;
73898;SDS011;62234;50.892;12.724;2022-08-11T07:37:39;6.50;;;2.60;;
73898;SDS011;62234;50.892;12.724;2022-08-11T07:40:22;5.07;;;2.13;;
73898;SDS011;62234;50.892;12.724;2022-08-11T07:42:49;3.40;;;1.70;;
73898;SDS011;62234;50.892;12.724;2022-08-11T07:45:26;2.88;;;1.20;;
73898;SDS011;62234;50.892;12.724;2022-08-11T07:51:29;5.57;;;1.45;;
73898;SDS011;62234;50.892;12.724;2022-08-11T07:54:16;1.73;;;1.63;;
73898;SDS011;62234;50.892;12.724;2022-08-11T07:59:57;6.93;;;1.70;;
73898;SDS011;62234;50.892;12.724;2022-08-11T08:02:47;1.73;;;1.48;;
73898;SDS011;62234;50.892;12.724;2022-08-11T08:05:44;3.75;;;1.40;;
73898;SDS011;62234;50.892;12.724;2022-08-11T08:08:29;2.08;;;1.30;;
73898;SDS011;62234;50.892;12.724;2022-08-11T08:11:15;3.08;;;1.30;;
73898;SDS011;62234;50.892;12.724;2022-08-11T08:14:05;4.03;;;1.60;;
73898;SDS011;62234;50.892;12.724;2022-08-11T08:16:51;3.45;;;1.30;;
73898;SDS011;62234;50.892;12.724;2022-08-11T08:19:36;2.15;;;1.33;;
73898;SDS011;62234;50.892;12.724;2022-08-11T08:22:07;3.30;;;1.30;;
73898;SDS011;62234;50.892;12.724;2022-08-11T08:24:34;3.25;;;1.70;;
73898;SDS011;62234;50.892;12.724;2022-08-11T08:27:00;3.30;;;1.17;;
73898;SDS011;62234;50.892;12.724;2022-08-11T08:29:31;2.67;;;1.40;;
73898;SDS011;62234;50.892;12.724;2022-08-11T08:32:17;2.50;;;1.60;;
73898;SDS011;62234;50.892;12.724;2022-08-11T08:34:54;5.78;;;1.90;;
73898;SDS011;62234;50.892;12.724;2022-08-11T08:37:46;7.97;;;1.48;;
73898;SDS011;62234;50.892;12.724;2022-08-11T08:40:19;1.63;;;1.50;;
73898;SDS011;62234;50.892;12.724;2022-08-11T08:43:09;1.42;;;1.33;;
73898;SDS011;62234;50.892;12.724;2022-08-11T08:45:35;3.83;;;1.70;;
73898;SDS011;62234;50.892;12.724;2022-08-11T08:48:02;2.10;;;1.60;;
73898;SDS011;62234;50.892;12.724;2022-08-11T08:50:36;3.03;;;1.30;;
73898;SDS011;62234;50.892;12.724;2022-08-11T08:53:23;2.90;;;1.60;;
73898;SDS011;62234;50.892;12.724;2022-08-11T08:55:53;1.65;;;1.55;;
73898;SDS011;62234;50.892;12.724;2022-08-11T08:58:20;1.70;;;1.60;;
73898;SDS011;62234;50.892;12.724;2022-08-11T09:00:49;5.93;;;1.52;;
73898;SDS011;62234;50.892;12.724;2022-08-11T09:03:19;3.70;;;1.27;;
73898;SDS011;62234;50.892;12.724;2022-08-11T09:05:45;2.33;;;1.40;;
73898;SDS011;62234;50.892;12.724;2022-08-11T09:08:12;6.47;;;1.67;;
73898;SDS011;62234;50.892;12.724;2022-08-11T09:13:49;3.15;;;1.58;;
73898;SDS011;62234;50.892;12.724;2022-08-11T09:16:16;1.75;;;1.40;;
73898;SDS011;62234;50.892;12.724;2022-08-11T09:18:45;2.58;;;1.50;;
73898;SDS011;62234;50.892;12.724;2022-08-11T09:21:11;2.28;;;1.30;;
73898;SDS011;62234;50.892;12.724;2022-08-11T09:23:39;4.05;;;1.55;;
73898;SDS011;62234;50.892;12.724;2022-08-11T09:26:24;4.93;;;1.42;;
73898;SDS011;62234;50.892;12.724;2022-08-11T09:29:09;2.13;;;1.35;;
73898;SDS011;62234;50.892;12.724;2022-08-11T09:31:45;2.97;;;1.33;;
73898;SDS011;62234;50.892;12.724;2022-08-11T09:34:12;1.83;;;1.27;;
73898;SDS011;62234;50.892;12.724;2022-08-11T09:36:42;3.80;;;1.50;;
73898;SDS011;62234;50.892;12.724;2022-08-11T09:39:27;2.65;;;1.52;;
73898;SDS011;62234;50.892;12.724;2022-08-11T09:42:15;2.65;;;1.70;;
73898;SDS011;62234;50.892;12.724;2022-08-11T09:44:41;3.92;;;1.60;;
73898;SDS011;62234;50.892;12.724;2022-08-11T09:47:16;1.50;;;1.40;;
73898;SDS011;62234;50.892;12.724;2022-08-11T09:49:45;7.38;;;1.50;;
73898;SDS011;62234;50.892;12.724;2022-08-11T09:52:13;3.05;;;1.58;;
73898;SDS011;62234;50.892;12.724;2022-08-11T09:54:42;1.70;;;1.60;;
73898;SDS011;62234;50.892;12.724;2022-08-11T09:57:09;3.55;;;1.88;;
73898;SDS011;62234;50.892;12.724;2022-08-11T09:59:53;1.88;;;1.40;;
73898;SDS011;62234;50.892;12.724;2022-08-11T10:02:24;4.22;;;1.98;;
73898;SDS011;62234;50.892;12.724;2022-08-11T10:04:51;2.45;;;1.75;;
73898;SDS011;62234;50.892;12.724;2022-08-11T10:07:39;4.47;;;1.63;;
73898;SDS011;62234;50.892;12.724;2022-08-11T10:10:06;2.83;;;1.63;;
73898;SDS011;62234;50.892;12.724;2022-08-11T10:12:33;7.40;;;2.10;;
73898;SDS011;62234;50.892;12.724;2022-08-11T10:15:01;3.05;;;1.70;;
73898;SDS011;62234;50.892;12.724;2022-08-11T10:17:47;4.75;;;1.58;;
73898;SDS011;62234;50.892;12.724;2022-08-11T10:20:34;2.15;;;1.52;;
73898;SDS011;62234;50.892;12.724;2022-08-11T10:23:01;2.97;;;1.63;;
73898;SDS011;62234;50.892;12.724;2022-08-11T10:25:45;1.42;;;1.30;;
73898;SDS011;62234;50.892;12.724;2022-08-11T10:28:30;2.65;;;1.80;;
73898;SDS011;62234;50.892;12.724;2022-08-11T10:30:57;2.72;;;1.40;;
73898;SDS011;62234;50.892;12.724;2022-08-11T10:33:43;5.38;;;1.75;;
73898;SDS011;62234;50.892;12.724;2022-08-11T10:36:31;2.42;;;1.75;;
73898;SDS011;62234;50.892;12.724;2022-08-11T10:38:58;3.50;;;1.52;;
73898;SDS011;62234;50.892;12.724;2022-08-11T10:41:25;3.17;;;1.73;;
73898;SDS011;62234;50.892;12.724;2022-08-11T10:44:10;4.32;;;1.70;;
73898;SDS011;62234;50.892;12.724;2022-08-11T10:46:36;3.40;;;1.35;;
73898;SDS011;62234;50.892;12.724;2022-08-11T10:49:21;5.88;;;1.85;;
73898;SDS011;62234;50.892;12.724;2022-08-11T10:51:48;2.15;;;1.33;;
73898;SDS011;62234;50.892;12.724;2022-08-11T10:54:33;5.18;;;1.80;;
73898;SDS011;62234;50.892;12.724;2022-08-11T10:57:20;5.28;;;1.60;;
73898;SDS011;62234;50.892;12.724;2022-08-11T11:00:08;3.28;;;1.40;;
73898;SDS011;62234;50.892;12.724;2022-08-11T11:02:37;4.03;;;1.60;;
73898;SDS011;62234;50.892;12.724;2022-08-11T11:10:11;3.38;;;1.30;;
73898;SDS011;62234;50.892;12.724;2022-08-11T11:12:41;4.57;;;1.60;;
73898;SDS011;62234;50.892;12.724;2022-08-11T11:15:28;2.58;;;1.50;;
73898;SDS011;62234;50.892;12.724;2022-08-11T11:18:18;4.20;;;1.50;;
73898;SDS011;62234;50.892;12.724;2022-08-11T11:20:47;5.68;;;1.70;;
73898;SDS011;62234;50.892;12.724;2022-08-11T11:23:22;5.18;;;1.88;;
73898;SDS011;62234;50.892;12.724;2022-08-11T11:28:45;4.60;;;1.77;;
73898;SDS011;62234;50.892;12.724;2022-08-11T11:36:23;2.15;;;1.50;;
73898;SDS011;62234;50.892;12.724;2022-08-11T11:38:51;2.80;;;1.75;;
73898;SDS011;62234;50.892;12.724;2022-08-11T11:41:20;2.05;;;1.83;;
73898;SDS011;62234;50.892;12.724;2022-08-11T11:43:50;2.05;;;1.83;;
73898;SDS011;62234;50.892;12.724;2022-08-11T11:46:16;2.55;;;1.70;;
73898;SDS011;62234;50.892;12.724;2022-08-11T11:48:42;2.67;;;1.63;;
73898;SDS011;62234;50.892;12.724;2022-08-11T11:51:08;2.08;;;1.60;;
73898;SDS011;62234;50.892;12.724;2022-08-11T11:53:38;3.55;;;1.90;;
73898;SDS011;62234;50.892;12.724;2022-08-11T11:56:04;2.88;;;1.42;;
73898;SDS011;62234;50.892;12.724;2022-08-11T11:58:30;6.18;;;1.70;;
73898;SDS011;62234;50.892;12.724;2022-08-11T12:01:15;2.45;;;1.85;;
73898;SDS011;62234;50.892;12.724;2022-08-11T12:03:42;7.50;;;1.75;;
73898;SDS011;62234;50.892;12.724;2022-08-11T12:06:11;2.22;;;1.75;;
73898;SDS011;62234;50.892;12.724;2022-08-11T12:08:38;2.03;;;1.50;;
73898;SDS011;62234;50.892;12.724;2022-08-11T12:11:05;1.45;;;1.30;;
73898;SDS011;62234;50.892;12.724;2022-08-11T12:13:50;2.03;;;1.85;;
73898;SDS011;62234;50.892;12.724;2022-08-11T12:16:18;2.08;;;1.88;;
73898;SDS011;62234;50.892;12.724;2022-08-11T12:18:45;4.30;;;1.80;;
73898;SDS011;62234;50.892;12.724;2022-08-11T12:21:11;2.35;;;1.70;;
73898;SDS011;62234;50.892;12.724;2022-08-11T12:23:39;1.67;;;1.55;;
73898;SDS011;62234;50.892;12.724;2022-08-11T12:26:23;4.90;;;1.80;;
73898;SDS011;62234;50.892;12.724;2022-08-11T12:29:09;4.35;;;1.83;;
73898;SDS011;62234;50.892;12.724;2022-08-11T12:31:36;5.93;;;1.60;;
73898;SDS011;62234;50.892;12.724;2022-08-11T12:34:03;3.13;;;1.90;;
73898;SDS011;62234;50.892;12.724;2022-08-11T12:36:31;2.97;;;1.70;;
73898;SDS011;62234;50.892;12.724;2022-08-11T12:38:58;2.38;;;1.90;;
73898;SDS011;62234;50.892;12.724;2022-08-11T12:41:24;2.15;;;1.45;;
73898;SDS011;62234;50.892;12.724;2022-08-11T12:44:09;2.35;;;1.60;;
73898;SDS011;62234;50.892;12.724;2022-08-11T12:47:05;2.13;;;1.70;;
73898;SDS011;62234;50.892;12.724;2022-08-11T12:49:31;3.95;;;1.67;;
73898;SDS011;62234;50.892;12.724;2022-08-11T12:52:20;11.60;;;2.08;;
73898;SDS011;62234;50.892;12.724;2022-08-11T12:57:16;3.30;;;1.67;;
73898;SDS011;62234;50.892;12.724;2022-08-11T13:00:02;4.43;;;1.77;;
73898;SDS011;62234;50.892;12.724;2022-08-11T13:02:47;3.67;;;1.35;;
73898;SDS011;62234;50.892;12.724;2022-08-11T13:05:32;12.82;;;1.95;;
73898;SDS011;62234;50.892;12.724;2022-08-11T13:08:00;4.82;;;1.33;;
73898;SDS011;62234;50.892;12.724;2022-08-11T13:10:37;4.00;;;1.58;;
73898;SDS011;62234;50.892;12.724;2022-08-11T13:13:22;3.85;;;1.70;;
73898;SDS011;62234;50.892;12.724;2022-08-11T13:15:53;2.03;;;1.20;;
73898;SDS011;62234;50.892;12.724;2022-08-11T13:18:27;3.72;;;1.67;;
73898;SDS011;62234;50.892;12.724;2022-08-11T13:20:53;4.30;;;1.85;;
73898;SDS011;62234;50.892;12.724;2022-08-11T13:23:20;1.90;;;1.33;;
73898;SDS011;62234;50.892;12.724;2022-08-11T13:25:47;2.63;;;1.63;;
73898;SDS011;62234;50.892;12.724;2022-08-11T13:28:13;4.03;;;1.52;;
73898;SDS011;62234;50.892;12.724;2022-08-11T13:30:41;2.55;;;1.50;;
73898;SDS011;62234;50.892;12.724;2022-08-11T13:36:30;5.80;;;1.23;;
73898;SDS011;62234;50.892;12.724;2022-08-11T13:38:56;3.53;;;1.23;;
73898;SDS011;62234;50.892;12.724;2022-08-11T13:41:24;1.70;;;1.50;;
73898;SDS011;62234;50.892;12.724;2022-08-11T13:44:04;7.60;;;1.60;;
73898;SDS011;62234;50.892;12.724;2022-08-11T13:46:30;3.55;;;1.50;;
73898;SDS011;62234;50.892;12.724;2022-08-11T13:48:57;3.90;;;1.55;;
73898;SDS011;62234;50.892;12.724;2022-08-11T13:51:24;3.47;;;2.00;;
73898;SDS011;62234;50.892;12.724;2022-08-11T13:54:19;1.45;;;1.33;;
73898;SDS011;62234;50.892;12.724;2022-08-11T13:56:44;1.65;;;1.17;;
73898;SDS011;62234;50.892;12.724;2022-08-11T13:59:10;2.70;;;1.23;;
73898;SDS011;62234;50.892;12.724;2022-08-11T14:01:38;4.40;;;1.50;;
73898;SDS011;62234;50.892;12.724;2022-08-11T14:04:09;2.42;;;1.40;;
73898;SDS011;62234;50.892;12.724;2022-08-11T14:06:44;3.00;;;1.10;;
73898;SDS011;62234;50.892;12.724;2022-08-11T14:09:11;4.85;;;1.40;;
73898;SDS011;62234;50.892;12.724;2022-08-11T14:11:38;1.60;;;1.50;;
73898;SDS011;62234;50.892;12.724;2022-08-11T14:14:26;3.72;;;1.50;;
73898;SDS011;62234;50.892;12.724;2022-08-11T14:16:57;3.20;;;1.30;;
73898;SDS011;62234;50.892;12.724;2022-08-11T14:19:26;1.10;;;1.10;;
73898;SDS011;62234;50.892;12.724;2022-08-11T14:21:52;2.88;;;1.45;;
73898;SDS011;62234;50.892;12.724;2022-08-11T14:24:33;1.73;;;1.50;;
73898;SDS011;62234;50.892;12.724;2022-08-11T14:26:59;4.97;;;1.60;;
73898;SDS011;62234;50.892;12.724;2022-08-11T14:29:26;2.75;;;1.42;;
73898;SDS011;62234;50.892;12.724;2022-08-11T14:31:54;1.23;;;1.13;;
73898;SDS011;62234;50.892;12.724;2022-08-11T14:34:22;3.00;;;1.23;;
73898;SDS011;62234;50.892;12.724;2022-08-11T14:36:50;5.25;;;1.20;;
73898;SDS011;62234;50.892;12.724;2022-08-11T14:39:17;1.92;;;1.30;;
73898;SDS011;62234;50.892;12.724;2022-08-11T14:41:45;2.53;;;1.38;;
73898;SDS011;62234;50.892;12.724;2022-08-11T14:44:31;3.03;;;1.20;;
73898;SDS011;62234;50.892;12.724;2022-08-11T14:47:17;4.07;;;1.45;;
73898;SDS011;62234;50.892;12.724;2022-08-11T14:49:43;1.30;;;1.20;;
73898;SDS011;62234;50.892;12.724;2022-08-11T14:52:10;1.95;;;1.60;;
73898;SDS011;62234;50.892;12.724;2022-08-11T14:54:41;4.55;;;1.35;;
73898;SDS011;62234;50.892;12.724;2022-08-11T14:57:35;4.72;;;1.55;;
73898;SDS011;62234;50.892;12.724;2022-08-11T15:00:02;2.40;;;1.35;;
73898;SDS011;62234;50.892;12.724;2022-08-11T15:02:30;1.98;;;1.38;;
73898;SDS011;62234;50.892;12.724;2022-08-11T15:05:16;3.72;;;1.20;;
73898;SDS011;62234;50.892;12.724;2022-08-11T15:07:44;2.22;;;1.25;;
73898;SDS011;62234;50.892;12.724;2022-08-11T15:10:37;2.92;;;1.30;;
73898;SDS011;62234;50.892;12.724;2022-08-11T15:13:03;6.00;;;1.98;;
73898;SDS011;62234;50.892;12.724;2022-08-11T15:15:29;2.50;;;1.33;;
73898;SDS011;62234;50.892;12.724;2022-08-11T15:18:14;1.77;;;1.25;;
73898;SDS011;62234;50.892;12.724;2022-08-11T15:20:44;1.08;;;1.02;;
73898;SDS011;62234;50.892;12.724;2022-08-11T15:26:35;0.95;;;0.88;;
73898;SDS011;62234;50.892;12.724;2022-08-11T15:29:22;1.65;;;1.10;;
73898;SDS011;62234;50.892;12.724;2022-08-11T15:32:09;4.65;;;1.17;;
73898;SDS011;62234;50.892;12.724;2022-08-11T15:34:48;3.30;;;0.70;;
73898;SDS011;62234;50.892;12.724;2022-08-11T15:37:35;2.22;;;1.02;;
73898;SDS011;62234;50.892;12.724;2022-08-11T15:40:17;1.50;;;0.90;;
73898;SDS011;62234;50.892;12.724;2022-08-11T15:43:15;2.55;;;0.93;;
73898;SDS011;62234;50.892;12.724;2022-08-11T15:46:05;4.38;;;1.20;;
73898;SDS011;62234;50.892;12.724;2022-08-11T15:48:45;1.30;;;0.70;;
73898;SDS011;62234;50.892;12.724;2022-08-11T15:51:16;3.58;;;1.05;;
73898;SDS011;62234;50.892;12.724;2022-08-11T15:53:56;1.55;;;0.60;;
73898;SDS011;62234;50.892;12.724;2022-08-11T16:02:18;0.70;;;0.70;;
73898;SDS011;62234;50.892;12.724;2022-08-11T16:05:05;2.30;;;0.90;;
73898;SDS011;62234;50.892;12.724;2022-08-11T16:07:38;3.92;;;0.93;;
73898;SDS011;62234;50.892;12.724;2022-08-11T16:10:15;4.05;;;0.80;;
73898;SDS011;62234;50.892;12.724;2022-08-11T16:13:10;0.50;;;0.50;;
73898;SDS011;62234;50.892;12.724;2022-08-11T16:15:48;0.88;;;0.75;;
73898;SDS011;62234;50.892;12.724;2022-08-11T16:18:35;2.55;;;0.70;;
73898;SDS011;62234;50.892;12.724;2022-08-11T16:21:11;0.90;;;0.70;;
73898;SDS011;62234;50.892;12.724;2022-08-11T16:23:38;3.08;;;0.88;;
73898;SDS011;62234;50.892;12.724;2022-08-11T16:28:55;2.60;;;0.60;;
73898;SDS011;62234;50.892;12.724;2022-08-11T16:31:22;4.40;;;0.80;;
73898;SDS011;62234;50.892;12.724;2022-08-11T16:34:22;9.90;;;2.03;;
73898;SDS011;62234;50.892;12.724;2022-08-11T16:37:06;4.85;;;0.90;;
73898;SDS011;62234;50.892;12.724;2022-08-11T16:39:52;1.20;;;0.88;;
73898;SDS011;62234;50.892;12.724;2022-08-11T16:42:18;4.10;;;0.77;;
73898;SDS011;62234;50.892;12.724;2022-08-11T16:48:07;1.98;;;0.95;;
73898;SDS011;62234;50.892;12.724;2022-08-11T16:50:34;1.38;;;0.60;;
73898;SDS011;62234;50.892;12.724;2022-08-11T16:56:05;1.00;;;0.80;;
73898;SDS011;62234;50.892;12.724;2022-08-11T16:58:35;1.17;;;0.63;;
73898;SDS011;62234;50.892;12.724;2022-08-11T17:01:36;1.33;;;0.63;;
73898;SDS011;62234;50.892;12.724;2022-08-11T17:07:30;0.68;;;0.68;;
73898;SDS011;62234;50.892;12.724;2022-08-11T17:10:21;1.42;;;0.80;;
73898;SDS011;62234;50.892;12.724;2022-08-11T17:19:27;3.13;;;0.68;;
73898;SDS011;62234;50.892;12.724;2022-08-11T17:22:01;1.67;;;0.80;;
73898;SDS011;62234;50.892;12.724;2022-08-11T17:24:46;5.07;;;0.70;;
73898;SDS011;62234;50.892;12.724;2022-08-11T17:27:15;2.20;;;0.75;;
73898;SDS011;62234;50.892;12.724;2022-08-11T17:29:55;2.30;;;0.60;;
73898;SDS011;62234;50.892;12.724;2022-08-11T17:35:19;2.15;;;1.00;;
73898;SDS011;62234;50.892;12.724;2022-08-11T17:41:00;2.55;;;0.73;;
73898;SDS011;62234;50.892;12.724;2022-08-11T17:43:59;0.80;;;0.80;;
73898;SDS011;62234;50.892;12.724;2022-08-11T17:52:55;1.65;;;0.88;;
73898;SDS011;62234;50.892;12.724;2022-08-11T18:07:29;1.15;;;0.70;;
73898;SDS011;62234;50.892;12.724;2022-08-11T18:10:22;2.78;;;1.00;;
73898;SDS011;62234;50.892;12.724;2022-08-11T18:13:07;6.20;;;1.13;;
73898;SDS011;62234;50.892;12.724;2022-08-11T18:16:04;3.22;;;0.75;;
73898;SDS011;62234;50.892;12.724;2022-08-11T18:18:49;4.95;;;1.27;;
73898;SDS011;62234;50.892;12.724;2022-08-11T18:21:35;0.90;;;0.90;;
73898;SDS011;62234;50.892;12.724;2022-08-11T18:24:20;2.05;;;0.90;;
73898;SDS011;62234;50.892;12.724;2022-08-11T18:27:06;1.35;;;1.00;;
73898;SDS011;62234;50.892;12.724;2022-08-11T18:29:53;1.40;;;1.15;;
73898;SDS011;62234;50.892;12.724;2022-08-11T18:32:39;1.92;;;1.02;;
73898;SDS011;62234;50.892;12.724;2022-08-11T18:35:25;1.30;;;1.08;;
73898;SDS011;62234;50.892;12.724;2022-08-11T18:38:11;1.05;;;0.95;;
73898;SDS011;62234;50.892;12.724;2022-08-11T18:40:57;1.63;;;0.82;;
73898;SDS011;62234;50.892;12.724;2022-08-11T18:43:42;3.35;;;1.00;;
73898;SDS011;62234;50.892;12.724;2022-08-11T18:46:29;1.85;;;0.90;;
73898;SDS011;62234;50.892;12.724;2022-08-11T18:49:18;1.98;;;1.00;;
73898;SDS011;62234;50.892;12.724;2022-08-11T18:52:04;1.98;;;0.88;;
73898;SDS011;62234;50.892;12.724;2022-08-11T18:54:56;1.15;;;0.73;;
73898;SDS011;62234;50.892;12.724;2022-08-11T18:57:42;1.58;;;0.80;;
73898;SDS011;62234;50.892;12.724;2022-08-11T19:00:29;1.08;;;0.88;;
73898;SDS011;62234;50.892;12.724;2022-08-11T19:03:15;3.60;;;1.10;;
73898;SDS011;62234;50.892;12.724;2022-08-11T19:06:01;2.85;;;1.02;;
73898;SDS011;62234;50.892;12.724;2022-08-11T19:08:47;2.15;;;1.10;;
73898;SDS011;62234;50.892;12.724;2022-08-11T19:14:45;1.38;;;0.93;;
73898;SDS011;62234;50.892;12.724;2022-08-11T19:17:42;2.25;;;1.00;;
73898;SDS011;62234;50.892;12.724;2022-08-11T19:20:39;4.55;;;1.05;;
73898;SDS011;62234;50.892;12.724;2022-08-11T19:23:31;1.92;;;1.00;;
73898;SDS011;62234;50.892;12.724;2022-08-11T19:26:16;1.35;;;1.02;;
73898;SDS011;62234;50.892;12.724;2022-08-11T19:29:01;2.03;;;1.10;;
73898;SDS011;62234;50.892;12.724;2022-08-11T19:31:47;2.63;;;0.93;;
73898;SDS011;62234;50.892;12.724;2022-08-11T19:34:31;4.03;;;0.90;;
73898;SDS011;62234;50.892;12.724;2022-08-11T19:37:16;2.42;;;1.10;;
73898;SDS011;62234;50.892;12.724;2022-08-11T19:43:18;4.22;;;1.15;;
73898;SDS011;62234;50.892;12.724;2022-08-11T19:46:03;6.30;;;1.17;;
73898;SDS011;62234;50.892;12.724;2022-08-11T19:48:50;4.13;;;1.15;;
73898;SDS011;62234;50.892;12.724;2022-08-11T19:51:35;6.35;;;0.80;;
73898;SDS011;62234;50.892;12.724;2022-08-11T19:54:28;3.83;;;1.45;;
73898;SDS011;62234;50.892;12.724;2022-08-11T19:57:13;7.85;;;1.45;;
73898;SDS011;62234;50.892;12.724;2022-08-11T19:59:58;7.95;;;1.27;;
73898;SDS011;62234;50.892;12.724;2022-08-11T20:02:46;7.07;;;1.65;;
73898;SDS011;62234;50.892;12.724;2022-08-11T20:05:39;2.80;;;0.70;;
73898;SDS011;62234;50.892;12.724;2022-08-11T20:08:24;4.15;;;1.38;;
73898;SDS011;62234;50.892;12.724;2022-08-11T20:11:17;1.75;;;1.20;;
73898;SDS011;62234;50.892;12.724;2022-08-11T20:14:05;1.60;;;1.00;;
73898;SDS011;62234;50.892;12.724;2022-08-11T20:16:52;1.60;;;1.13;;
73898;SDS011;62234;50.892;12.724;2022-08-11T20:19:37;2.65;;;1.15;;
73898;SDS011;62234;50.892;12.724;2022-08-11T20:22:23;2.70;;;1.13;;
73898;SDS011;62234;50.892;12.724;2022-08-11T20:25:08;3.03;;;1.10;;
73898;SDS011;62234;50.892;12.724;2022-08-11T20:27:54;3.78;;;1.05;;
73898;SDS011;62234;50.892;12.724;2022-08-11T20:30:39;3.10;;;1.10;;
73898;SDS011;62234;50.892;12.724;2022-08-11T20:33:33;2.00;;;0.77;;
73898;SDS011;62234;50.892;12.724;2022-08-11T20:36:18;1.13;;;1.00;;
73898;SDS011;62234;50.892;12.724;2022-08-11T20:39:02;1.30;;;0.90;;
73898;SDS011;62234;50.892;12.724;2022-08-11T20:41:47;1.67;;;1.20;;
73898;SDS011;62234;50.892;12.724;2022-08-11T20:44:32;0.98;;;0.90;;
73898;SDS011;62234;50.892;12.724;2022-08-11T20:53:10;2.83;;;0.98;;
73898;SDS011;62234;50.892;12.724;2022-08-11T20:55:56;1.20;;;1.10;;
73898;SDS011;62234;50.892;12.724;2022-08-11T20:58:42;1.65;;;1.10;;
73898;SDS011;62234;50.892;12.724;2022-08-11T21:01:28;2.55;;;1.00;;
73898;SDS011;62234;50.892;12.724;2022-08-11T21:04:13;2.90;;;0.98;;
73898;SDS011;62234;50.892;12.724;2022-08-11T21:07:00;1.75;;;1.15;;
73898;SDS011;62234;50.892;12.724;2022-08-11T21:09:45;3.53;;;1.48;;
73898;SDS011;62234;50.892;12.724;2022-08-11T21:12:31;1.38;;;1.23;;
73898;SDS011;62234;50.892;12.724;2022-08-11T21:15:17;3.08;;;0.98;;
73898;SDS011;62234;50.892;12.724;2022-08-11T21:18:02;1.00;;;0.90;;
73898;SDS011;62234;50.892;12.724;2022-08-11T21:20:53;1.48;;;1.33;;
73898;SDS011;62234;50.892;12.724;2022-08-11T21:23:39;3.33;;;1.10;;
73898;SDS011;62234;50.892;12.724;2022-08-11T21:26:25;1.42;;;1.20;;
73898;SDS011;62234;50.892;12.724;2022-08-11T21:29:10;2.35;;;1.17;;
73898;SDS011;62234;50.892;12.724;2022-08-11T21:32:03;2.55;;;1.00;;